createdAt,value
2018-07-08T00:00:08.269Z,85.00
2018-07-08T00:02:36.983Z,85.00
2018-07-08T00:05:05.706Z,85.30
2018-07-08T00:07:34.394Z,85.50
2018-07-08T00:10:03.148Z,85.40
2018-07-08T00:12:31.899Z,85.90
2018-07-08T00:15:00.566Z,85.80
2018-07-08T00:17:29.332Z,86.40
2018-07-08T00:19:58.060Z,86.40
2018-07-08T00:22:26.746Z,86.20
2018-07-08T00:24:55.470Z,86.00
2018-07-08T00:27:24.136Z,86.90
2018-07-08T00:29:52.819Z,86.30
2018-07-08T00:32:21.579Z,87.20
2018-07-08T00:34:50.386Z,87.50
2018-07-08T00:37:22.053Z,86.80
2018-07-08T00:39:50.799Z,86.40
2018-07-08T00:42:19.507Z,86.40
2018-07-08T00:44:48.239Z,87.20
2018-07-08T00:47:16.890Z,87.50
2018-07-08T00:49:45.619Z,88.10
2018-07-08T00:52:14.360Z,89.10
2018-07-08T00:54:43.069Z,90.10
2018-07-08T00:57:11.827Z,90.80
2018-07-08T00:59:40.513Z,90.20
2018-07-08T01:02:09.226Z,88.90
2018-07-08T01:04:37.895Z,89.30
2018-07-08T01:07:06.713Z,89.30
2018-07-08T01:09:35.486Z,88.30
2018-07-08T01:12:04.276Z,87.70
2018-07-08T01:14:32.944Z,87.90
2018-07-08T01:17:01.682Z,88.00
2018-07-08T01:19:31.717Z,87.70
2018-07-08T01:22:00.408Z,88.40
2018-07-08T01:24:29.124Z,88.10
2018-07-08T01:26:57.771Z,87.70
2018-07-08T01:29:26.489Z,88.10
2018-07-08T01:31:55.222Z,88.00
2018-07-08T01:34:23.953Z,88.30
2018-07-08T01:36:52.626Z,89.80
2018-07-08T01:39:21.345Z,88.90
2018-07-08T01:41:50.119Z,88.50
2018-07-08T01:44:18.890Z,88.50
2018-07-08T01:46:47.617Z,87.80
2018-07-08T01:49:16.338Z,87.70
2018-07-08T01:51:45.037Z,87.80
2018-07-08T01:54:13.803Z,88.00
2018-07-08T01:56:42.504Z,88.10
2018-07-08T01:59:11.228Z,89.70
2018-07-08T02:01:39.986Z,89.00
2018-07-08T02:04:08.683Z,89.10
2018-07-08T02:06:37.379Z,88.90
2018-07-08T02:09:06.179Z,89.20
2018-07-08T02:11:34.938Z,89.00
2018-07-08T02:14:03.705Z,89.10
2018-07-08T02:16:32.414Z,89.20
2018-07-08T02:19:01.230Z,89.80
2018-07-08T02:21:29.950Z,89.70
2018-07-08T02:23:58.639Z,90.00
2018-07-08T02:26:27.334Z,90.10
2018-07-08T02:28:56.071Z,90.40
2018-07-08T02:31:24.799Z,90.70
2018-07-08T02:33:53.531Z,90.10
2018-07-08T02:36:22.283Z,89.50
2018-07-08T02:38:51.142Z,89.10
2018-07-08T02:41:19.814Z,89.00
2018-07-08T02:43:48.626Z,89.10
2018-07-08T02:46:17.384Z,88.70
2018-07-08T02:48:46.074Z,88.70
2018-07-08T02:51:14.766Z,88.70
2018-07-08T02:53:43.417Z,89.40
2018-07-08T02:56:12.155Z,89.80
2018-07-08T02:58:40.819Z,89.50
2018-07-08T03:01:09.592Z,89.50
2018-07-08T03:03:38.271Z,89.70
2018-07-08T03:06:06.933Z,89.80
2018-07-08T03:08:35.636Z,90.00
2018-07-08T03:11:04.321Z,90.10
2018-07-08T03:13:33.035Z,90.00
2018-07-08T03:16:01.684Z,90.60
2018-07-08T03:18:30.402Z,90.40
2018-07-08T03:20:59.148Z,90.80
2018-07-08T03:25:56.133Z,90.40
2018-07-08T03:28:24.854Z,90.70
2018-07-08T03:30:53.609Z,90.40
2018-07-08T03:33:22.444Z,90.70
2018-07-08T03:35:51.225Z,91.00
2018-07-08T03:38:20.017Z,90.90
2018-07-08T03:40:48.830Z,90.60
2018-07-08T03:43:17.566Z,90.40
2018-07-08T03:45:46.219Z,90.70
2018-07-08T03:48:14.907Z,90.30
2018-07-08T03:50:43.592Z,90.30
2018-07-08T03:53:12.287Z,90.30
2018-07-08T03:55:40.942Z,90.40
2018-07-08T03:58:09.687Z,90.50
2018-07-08T04:00:38.352Z,90.50
2018-07-08T04:03:07.074Z,90.50
2018-07-08T04:05:35.726Z,91.00
2018-07-08T04:08:04.437Z,90.70
2018-07-08T04:13:01.899Z,90.70
2018-07-08T04:15:30.679Z,90.90
2018-07-08T04:18:07.852Z,90.80
2018-07-08T04:20:37.588Z,90.60
2018-07-08T04:23:06.307Z,90.70
2018-07-08T04:25:35.023Z,90.80
2018-07-08T04:28:04.247Z,91.00
2018-07-08T04:30:33.232Z,91.10
2018-07-08T04:33:02.268Z,91.30
2018-07-08T04:35:30.940Z,91.00
2018-07-08T04:40:28.803Z,90.80
2018-07-08T04:42:57.503Z,90.70
2018-07-08T04:47:54.570Z,91.00
2018-07-08T04:50:23.270Z,91.00
2018-07-08T04:52:52.084Z,90.90
2018-07-08T04:55:20.779Z,91.00
2018-07-08T04:57:49.504Z,91.10
2018-07-08T05:00:18.222Z,91.90
2018-07-08T05:02:46.918Z,92.80
2018-07-08T05:05:15.671Z,92.60
2018-07-08T05:07:44.347Z,92.30
2018-07-08T05:10:13.190Z,92.60
2018-07-08T05:12:41.875Z,92.20
2018-07-08T05:15:10.648Z,92.00
2018-07-08T05:17:39.348Z,91.90
2018-07-08T05:20:08.221Z,91.70
2018-07-08T05:22:36.918Z,91.60
2018-07-08T05:25:05.656Z,91.30
2018-07-08T05:27:34.359Z,90.80
2018-07-08T05:30:03.100Z,87.10
2018-07-08T05:32:31.852Z,82.00
2018-07-08T05:35:00.541Z,77.00
2018-07-08T05:37:29.268Z,74.10
2018-07-08T05:39:58.245Z,69.80
2018-07-08T05:42:27.003Z,67.30
2018-07-08T05:44:55.702Z,65.60
2018-07-08T05:47:24.495Z,63.00
2018-07-08T05:49:53.180Z,61.40
2018-07-08T05:52:21.868Z,59.30
2018-07-08T05:54:50.687Z,59.50
2018-07-08T05:57:19.373Z,59.00
2018-07-08T05:59:48.090Z,57.90
2018-07-08T06:02:16.817Z,56.30
2018-07-08T06:04:45.519Z,57.70
2018-07-08T06:07:14.235Z,57.70
2018-07-08T06:09:42.928Z,57.20
2018-07-08T06:12:11.642Z,57.30
2018-07-08T06:14:40.350Z,58.90
2018-07-08T06:17:09.155Z,58.00
2018-07-08T06:19:37.894Z,57.20
2018-07-08T06:22:06.767Z,56.30
2018-07-08T06:24:35.450Z,56.30
2018-07-08T06:27:04.222Z,56.10
2018-07-08T06:29:32.986Z,56.70
2018-07-08T06:32:01.797Z,56.30
2018-07-08T06:34:30.493Z,56.00
2018-07-08T06:36:59.203Z,55.70
2018-07-08T06:39:27.920Z,56.10
2018-07-08T06:41:56.650Z,57.90
2018-07-08T06:44:25.445Z,57.50
2018-07-08T06:46:54.097Z,59.40
2018-07-08T06:49:22.867Z,59.50
2018-07-08T06:51:51.589Z,57.40
2018-07-08T06:54:20.369Z,56.90
2018-07-08T06:56:49.123Z,55.80
2018-07-08T06:59:17.825Z,56.10
2018-07-08T07:01:46.522Z,53.30
2018-07-08T07:04:15.254Z,53.10
2018-07-08T07:06:44.199Z,52.60
2018-07-08T07:09:12.917Z,53.40
2018-07-08T07:11:41.623Z,54.60
2018-07-08T07:14:10.395Z,54.90
2018-07-08T07:16:39.268Z,53.50
2018-07-08T07:19:08.103Z,52.50
2018-07-08T07:21:36.845Z,52.80
2018-07-08T07:24:05.650Z,54.10
2018-07-08T07:26:34.323Z,55.10
2018-07-08T07:29:03.142Z,53.80
2018-07-08T07:31:31.887Z,53.30
2018-07-08T07:34:00.656Z,51.50
2018-07-08T07:36:29.402Z,48.70
2018-07-08T07:39:01.079Z,45.90
2018-07-08T07:41:29.783Z,47.50
2018-07-08T07:43:58.996Z,47.60
2018-07-08T07:46:27.779Z,42.80
2018-07-08T07:48:56.560Z,43.80
2018-07-08T07:51:25.339Z,43.30
2018-07-08T07:53:54.055Z,44.70
2018-07-08T07:56:22.870Z,43.30
2018-07-08T07:58:52.300Z,43.70
2018-07-08T08:01:21.073Z,42.70
2018-07-08T08:03:49.883Z,40.40
2018-07-08T08:06:18.537Z,41.70
2018-07-08T08:08:47.383Z,41.10
2018-07-08T08:11:16.172Z,42.10
2018-07-08T08:13:56.158Z,41.10
2018-07-08T08:16:24.971Z,39.10
2018-07-08T08:18:53.734Z,38.60
2018-07-08T08:21:22.843Z,37.50
2018-07-08T08:23:51.577Z,37.10
2018-07-08T08:26:20.534Z,38.00
2018-07-08T08:28:49.341Z,37.60
2018-07-08T08:31:18.448Z,39.10
2018-07-08T08:33:58.297Z,38.60
2018-07-08T08:36:27.031Z,37.10
2018-07-08T08:38:55.699Z,38.00
2018-07-08T08:41:24.442Z,37.00
2018-07-08T08:43:53.207Z,33.10
2018-07-08T08:46:21.862Z,32.90
2018-07-08T08:48:50.571Z,34.20
2018-07-08T08:51:19.247Z,36.10
2018-07-08T08:53:48.127Z,36.70
2018-07-08T08:56:16.803Z,35.60
2018-07-08T08:58:45.530Z,33.90
2018-07-08T09:01:14.207Z,34.00
2018-07-08T09:03:42.901Z,33.30
2018-07-08T09:06:11.628Z,32.00
2018-07-08T09:08:40.287Z,33.60
2018-07-08T09:13:37.287Z,31.70
2018-07-08T09:16:06.346Z,31.40
2018-07-08T09:18:35.002Z,29.70
2018-07-08T09:21:03.755Z,29.40
2018-07-08T09:23:32.420Z,31.70
2018-07-08T09:26:01.186Z,28.90
2018-07-08T09:28:29.834Z,27.60
2018-07-08T09:30:58.531Z,28.70
2018-07-08T09:33:27.212Z,27.10
2018-07-08T09:35:55.931Z,28.10
2018-07-08T09:38:24.591Z,29.20
2018-07-08T09:40:53.262Z,29.40
2018-07-08T09:45:50.424Z,29.40
2018-07-08T09:48:19.128Z,29.60
2018-07-08T09:50:47.839Z,30.20
2018-07-08T09:53:16.492Z,27.90
2018-07-08T09:55:45.238Z,27.90
2018-07-08T09:58:13.900Z,27.70
2018-07-08T10:03:10.953Z,25.70
2018-07-08T10:05:39.617Z,26.20
2018-07-08T10:08:08.347Z,26.10
2018-07-08T10:10:37.016Z,26.00
2018-07-08T10:13:05.770Z,25.50
2018-07-08T10:15:34.448Z,24.20
2018-07-08T10:20:31.460Z,25.30
2018-07-08T10:23:00.196Z,25.00
2018-07-08T10:25:28.867Z,26.30
2018-07-08T10:28:15.147Z,26.00
2018-07-08T10:30:44.281Z,26.20
2018-07-08T10:33:13.015Z,26.60
2018-07-08T10:35:55.346Z,27.10
2018-07-08T10:40:52.575Z,27.90
2018-07-08T10:43:21.350Z,27.70
2018-07-08T10:45:50.224Z,27.70
2018-07-08T10:48:18.942Z,26.80
2018-07-08T10:50:47.760Z,25.70
2018-07-08T10:53:16.509Z,26.30
2018-07-08T10:55:45.296Z,27.80
2018-07-08T10:58:14.061Z,28.70
2018-07-08T11:00:42.806Z,28.60
2018-07-08T11:03:11.471Z,28.10
2018-07-08T11:05:40.187Z,29.80
2018-07-08T11:08:08.912Z,30.00
2018-07-08T11:10:37.672Z,29.80
2018-07-08T11:13:06.400Z,30.40
2018-07-08T11:15:35.176Z,29.80
2018-07-08T11:18:03.906Z,30.00
2018-07-08T11:20:32.658Z,31.30
2018-07-08T11:23:01.389Z,30.40
2018-07-08T11:25:30.124Z,30.90
2018-07-08T11:27:58.774Z,32.20
2018-07-08T11:30:27.575Z,32.60
2018-07-08T11:32:56.355Z,33.60
2018-07-08T11:35:25.006Z,33.10
2018-07-08T11:37:53.726Z,33.20
2018-07-08T11:40:22.395Z,34.20
2018-07-08T11:42:51.129Z,34.40
2018-07-08T11:45:19.792Z,35.70
2018-07-08T11:47:48.551Z,35.10
2018-07-08T11:50:17.206Z,33.90
2018-07-08T11:52:45.940Z,34.80
2018-07-08T11:57:42.964Z,35.40
2018-07-08T12:00:11.745Z,36.50
2018-07-08T12:02:40.514Z,35.80
2018-07-08T12:05:09.873Z,38.50
2018-07-08T12:07:38.732Z,39.10
2018-07-08T12:10:07.505Z,38.90
2018-07-08T12:12:36.276Z,37.80
2018-07-08T12:15:05.066Z,38.00
2018-07-08T12:17:33.836Z,39.10
2018-07-08T12:20:02.667Z,39.50
2018-07-08T12:22:31.576Z,39.90
2018-07-08T12:25:00.274Z,40.10
2018-07-08T12:27:28.955Z,40.20
2018-07-08T12:29:57.843Z,40.60
2018-07-08T12:32:26.586Z,38.40
2018-07-08T12:34:55.415Z,39.90
2018-07-08T12:37:24.157Z,40.30
2018-07-08T12:39:52.891Z,40.30
2018-07-08T12:42:21.615Z,39.60
2018-07-08T12:44:50.664Z,39.20
2018-07-08T12:47:19.350Z,39.50
2018-07-08T12:49:48.072Z,40.30
2018-07-08T12:52:16.803Z,40.20
2018-07-08T12:54:45.990Z,39.90
2018-07-08T12:57:14.887Z,40.10
2018-07-08T12:59:43.711Z,40.40
2018-07-08T13:02:12.414Z,38.80
2018-07-08T13:04:41.215Z,37.90
2018-07-08T13:07:09.980Z,38.50
2018-07-08T13:12:07.080Z,39.30
2018-07-08T13:14:35.737Z,40.20
2018-07-08T13:19:32.818Z,40.00
2018-07-08T13:22:01.531Z,38.70
2018-07-08T13:24:30.314Z,39.60
2018-07-08T13:26:58.971Z,40.00
2018-07-08T13:29:27.685Z,39.10
2018-07-08T13:31:56.326Z,39.90
2018-07-08T13:34:25.034Z,40.30
2018-07-08T13:36:53.697Z,39.70
2018-07-08T13:39:22.467Z,40.80
2018-07-08T13:41:51.131Z,39.20
2018-07-08T13:44:19.875Z,39.50
2018-07-08T13:46:48.778Z,39.70
2018-07-08T13:49:17.573Z,39.40
2018-07-08T13:51:46.262Z,39.70
2018-07-08T13:54:14.948Z,38.90
2018-07-08T13:56:43.672Z,38.70
2018-07-08T13:59:12.343Z,39.30
2018-07-08T14:01:41.054Z,38.80
2018-07-08T14:04:09.736Z,38.70
2018-07-08T14:06:38.459Z,39.10
2018-07-08T14:09:07.472Z,40.10
2018-07-08T14:11:36.222Z,39.90
2018-07-08T14:14:04.932Z,38.50
2018-07-08T14:16:33.810Z,38.80
2018-07-08T14:19:02.515Z,39.00
2018-07-08T14:21:31.261Z,37.80
2018-07-08T14:23:59.889Z,37.60
2018-07-08T14:26:31.428Z,37.50
2018-07-08T14:29:00.149Z,37.80
2018-07-08T14:31:28.943Z,38.70
2018-07-08T14:33:57.631Z,39.00
2018-07-08T14:36:26.325Z,38.40
2018-07-08T14:38:54.985Z,38.80
2018-07-08T14:41:23.717Z,38.20
2018-07-08T14:46:20.751Z,38.20
2018-07-08T14:48:49.459Z,38.10
2018-07-08T14:51:18.096Z,38.90
2018-07-08T14:53:46.843Z,38.20
2018-07-08T14:56:15.514Z,37.00
2018-07-08T15:01:12.671Z,37.10
2018-07-08T15:03:41.451Z,36.80
2018-07-08T15:06:10.160Z,36.30
2018-07-08T15:08:38.818Z,36.70
2018-07-08T15:11:07.582Z,36.40
2018-07-08T15:13:36.304Z,36.70
2018-07-08T15:16:05.149Z,36.60
2018-07-08T15:18:33.824Z,36.30
2018-07-08T15:21:02.559Z,36.10
2018-07-08T15:23:31.256Z,36.50
2018-07-08T15:25:59.952Z,34.60
2018-07-08T15:28:29.117Z,35.50
2018-07-08T15:30:57.859Z,35.60
2018-07-08T15:33:26.540Z,35.20
2018-07-08T15:35:55.223Z,36.00
2018-07-08T15:40:52.318Z,35.30
2018-07-08T15:43:21.019Z,35.00
2018-07-08T15:45:49.913Z,34.80
2018-07-08T15:48:18.603Z,35.90
2018-07-08T15:50:47.262Z,34.80
2018-07-08T15:53:15.953Z,36.20
2018-07-08T15:55:44.596Z,36.10
2018-07-08T15:58:13.325Z,35.10
2018-07-08T16:00:41.985Z,36.60
2018-07-08T16:03:10.723Z,35.70
2018-07-08T16:05:39.412Z,36.10
2018-07-08T16:08:08.130Z,36.50
2018-07-08T16:10:36.785Z,38.00
2018-07-08T16:13:05.607Z,37.30
2018-07-08T16:15:34.372Z,36.50
2018-07-08T16:18:03.127Z,36.70
2018-07-08T16:20:31.841Z,36.90
2018-07-08T16:23:00.604Z,35.70
2018-07-08T16:25:29.344Z,36.50
2018-07-08T16:27:58.237Z,36.90
2018-07-08T16:30:26.979Z,35.90
2018-07-08T16:32:55.806Z,36.50
2018-07-08T16:35:24.509Z,36.50
2018-07-08T16:37:53.390Z,35.90
2018-07-08T16:40:22.058Z,36.10
2018-07-08T16:42:50.909Z,36.50
2018-07-08T16:45:19.703Z,36.00
2018-07-08T16:47:48.500Z,37.40
2018-07-08T16:50:17.204Z,37.10
2018-07-08T16:52:46.408Z,36.60
2018-07-08T16:55:15.088Z,37.00
2018-07-08T16:57:43.855Z,37.60
2018-07-08T17:00:12.528Z,36.80
2018-07-08T17:02:41.287Z,37.90
2018-07-08T17:05:10.020Z,38.00
2018-07-08T17:07:38.674Z,38.60
2018-07-08T17:10:07.454Z,39.20
2018-07-08T17:12:36.269Z,38.40
2018-07-08T17:15:05.097Z,38.70
2018-07-08T17:17:33.935Z,37.90
2018-07-08T17:20:02.668Z,39.90
2018-07-08T17:22:31.329Z,39.00
2018-07-08T17:25:00.609Z,39.80
2018-07-08T17:27:29.391Z,39.90
2018-07-08T17:29:58.126Z,40.60
2018-07-08T17:32:26.838Z,39.80
2018-07-08T17:34:55.561Z,39.80
2018-07-08T17:37:24.245Z,39.20
2018-07-08T17:39:53.137Z,39.90
2018-07-08T17:42:21.825Z,41.30
2018-07-08T17:44:50.727Z,40.90
2018-07-08T17:47:19.378Z,41.80
2018-07-08T17:49:48.103Z,42.00
2018-07-08T17:52:16.753Z,42.90
2018-07-08T17:54:45.485Z,42.30
2018-07-08T17:57:14.201Z,41.90
2018-07-08T17:59:42.873Z,42.10
2018-07-08T18:02:11.852Z,42.50
2018-07-08T18:04:40.684Z,42.70
2018-07-08T18:07:09.889Z,42.50
2018-07-08T18:09:39.053Z,43.40
2018-07-08T18:12:07.836Z,43.10
2018-07-08T18:14:37.590Z,43.10
2018-07-08T18:17:06.294Z,44.40
2018-07-08T18:19:34.955Z,43.70
2018-07-08T18:22:03.999Z,43.40
2018-07-08T18:24:32.762Z,43.90
2018-07-08T18:27:01.543Z,44.60
2018-07-08T18:29:30.293Z,43.90
2018-07-08T18:31:59.011Z,44.30
2018-07-08T18:34:27.801Z,44.70
2018-07-08T18:36:56.472Z,44.40
2018-07-08T18:39:25.217Z,44.70
2018-07-08T18:41:53.944Z,44.70
2018-07-08T18:44:22.685Z,45.00
2018-07-08T18:46:51.448Z,44.80
2018-07-08T18:49:20.178Z,45.30
2018-07-08T18:51:48.905Z,45.60
2018-07-08T18:54:17.556Z,46.20
2018-07-08T18:56:46.247Z,47.60
2018-07-08T18:59:15.063Z,48.80
2018-07-08T19:01:43.725Z,49.20
2018-07-08T19:04:12.434Z,49.70
2018-07-08T19:06:41.255Z,51.90
2018-07-08T19:09:09.928Z,52.60
2018-07-08T19:11:38.682Z,53.80
2018-07-08T19:14:07.394Z,54.30
2018-07-08T19:16:36.063Z,52.40
2018-07-08T19:19:04.815Z,53.90
2018-07-08T19:21:33.514Z,53.40
2018-07-08T19:24:02.250Z,55.30
2018-07-08T19:26:31.459Z,58.50
2018-07-08T19:29:00.459Z,59.00
2018-07-08T19:31:29.203Z,57.50
2018-07-08T19:33:57.820Z,59.60
2018-07-08T19:36:26.616Z,61.30
2018-07-08T19:38:55.470Z,62.30
2018-07-08T19:41:24.235Z,63.00
2018-07-08T19:43:53.266Z,62.90
2018-07-08T19:46:22.499Z,63.50
2018-07-08T19:48:51.606Z,64.10
2018-07-08T19:51:20.460Z,65.40
2018-07-08T19:53:49.744Z,64.70
2018-07-08T19:56:18.499Z,64.80
2018-07-08T19:58:47.680Z,65.90
2018-07-08T20:01:16.525Z,60.60
2018-07-08T20:03:45.323Z,65.00
2018-07-08T20:06:14.308Z,63.90
2018-07-08T20:08:43.128Z,66.00
2018-07-08T20:11:11.995Z,65.00
2018-07-08T20:13:40.915Z,64.40
2018-07-08T20:16:09.636Z,66.30
2018-07-08T20:18:38.591Z,66.20
2018-07-08T20:21:07.527Z,66.80
2018-07-08T20:23:36.410Z,67.10
2018-07-08T20:28:34.006Z,68.60
2018-07-08T20:31:03.181Z,68.90
2018-07-08T20:33:31.954Z,69.40
2018-07-08T20:36:00.845Z,69.90
2018-07-08T20:38:29.642Z,70.80
2018-07-08T20:40:58.558Z,70.30
2018-07-08T20:43:27.458Z,71.30
2018-07-08T20:45:56.381Z,72.30
2018-07-08T20:48:25.621Z,71.00
2018-07-08T20:50:54.554Z,73.20
2018-07-08T20:53:23.382Z,73.20
2018-07-08T20:55:52.285Z,73.40
2018-07-08T20:58:21.711Z,73.50
2018-07-08T21:00:50.590Z,73.90
2018-07-08T21:03:19.574Z,74.40
2018-07-08T21:05:48.681Z,75.50
2018-07-08T21:08:17.407Z,74.90
2018-07-08T21:10:46.159Z,74.50
2018-07-08T21:13:15.167Z,74.20
2018-07-08T21:15:43.863Z,73.90
2018-07-08T21:18:12.566Z,75.20
2018-07-08T21:20:41.280Z,72.70
2018-07-08T21:23:10.309Z,74.20
2018-07-08T21:25:39.287Z,74.60
2018-07-08T21:28:08.334Z,74.80
2018-07-08T21:30:37.209Z,75.80
2018-07-08T21:33:06.130Z,77.40
2018-07-08T21:35:35.034Z,77.30
2018-07-08T21:38:03.892Z,77.10
2018-07-08T21:40:33.507Z,77.40
2018-07-08T21:43:02.488Z,77.50
2018-07-08T21:45:31.191Z,78.00
2018-07-08T21:48:00.029Z,78.90
2018-07-08T21:50:28.919Z,78.90
2018-07-08T21:52:57.766Z,79.40
2018-07-08T21:55:26.703Z,79.70
2018-07-08T21:57:55.434Z,80.30
2018-07-08T22:00:31.362Z,80.50
2018-07-08T22:03:00.627Z,80.50
2018-07-08T22:05:31.228Z,81.00
2018-07-08T22:08:03.254Z,81.20
2018-07-08T22:10:32.770Z,80.70
2018-07-08T22:13:03.073Z,80.90
2018-07-08T22:15:32.179Z,81.40
2018-07-08T22:18:01.141Z,81.40
2018-07-08T22:20:29.874Z,81.50
2018-07-08T22:22:58.920Z,81.50
2018-07-08T22:25:27.869Z,82.30
2018-07-08T22:27:56.715Z,81.80
2018-07-08T22:30:25.899Z,81.80
2018-07-08T22:32:54.838Z,81.70
2018-07-08T22:35:23.527Z,82.30
2018-07-08T22:37:52.299Z,82.30
2018-07-08T22:40:20.986Z,82.40
2018-07-08T22:42:49.764Z,82.80
2018-07-08T22:45:18.575Z,83.20
2018-07-08T22:50:15.617Z,81.70
2018-07-08T22:52:44.415Z,81.20
2018-07-08T22:55:13.123Z,81.40
2018-07-08T22:57:42.001Z,80.60
2018-07-08T23:00:22.051Z,80.90
2018-07-08T23:03:00.564Z,80.70
2018-07-08T23:05:29.286Z,80.60
2018-07-08T23:07:58.020Z,81.00
2018-07-08T23:10:26.677Z,81.60
2018-07-08T23:12:55.351Z,81.90
2018-07-08T23:15:24.095Z,82.30
2018-07-08T23:17:59.358Z,82.40
2018-07-08T23:20:28.093Z,83.90
2018-07-08T23:25:28.072Z,83.70
2018-07-08T23:27:56.855Z,84.30
2018-07-08T23:30:25.591Z,84.30
2018-07-08T23:33:00.716Z,84.70
2018-07-08T23:35:29.426Z,85.00
2018-07-08T23:37:58.084Z,85.50
2018-07-08T23:40:27.036Z,85.40
2018-07-08T23:42:55.794Z,85.80
2018-07-08T23:45:24.536Z,86.60
2018-07-08T23:47:53.287Z,86.10
2018-07-08T23:50:21.936Z,86.60
2018-07-08T23:52:50.769Z,86.60
2018-07-08T23:55:19.537Z,86.70
2018-07-08T23:57:48.226Z,86.90
